sensor_id;sensor_type;location;lat;lon;timestamp;P1;durP1;ratioP1;P2;durP2;ratioP2
28958;SDS011;16066;0.000;0.000;2022-07-23T00:00:31;16.20;;;10.80;;
28958;SDS011;16066;0.000;0.000;2022-07-23T00:02:56;15.70;;;11.60;;
28958;SDS011;16066;0.000;0.000;2022-07-23T00:05:22;18.43;;;12.03;;
28958;SDS011;16066;0.000;0.000;2022-07-23T00:07:47;16.30;;;11.37;;
28958;SDS011;16066;0.000;0.000;2022-07-23T00:10:13;17.00;;;10.60;;
28958;SDS011;16066;0.000;0.000;2022-07-23T00:12:39;18.50;;;11.70;;
28958;SDS011;16066;0.000;0.000;2022-07-23T00:15:06;18.27;;;10.83;;
28958;SDS011;16066;0.000;0.000;2022-07-23T00:17:32;17.40;;;11.47;;
28958;SDS011;16066;0.000;0.000;2022-07-23T00:19:58;15.37;;;10.27;;
28958;SDS011;16066;0.000;0.000;2022-07-23T00:22:23;18.10;;;11.43;;
28958;SDS011;16066;0.000;0.000;2022-07-23T00:24:49;16.73;;;11.33;;
28958;SDS011;16066;0.000;0.000;2022-07-23T00:27:15;22.33;;;12.60;;
28958;SDS011;16066;0.000;0.000;2022-07-23T00:29:40;18.20;;;11.77;;
28958;SDS011;16066;0.000;0.000;2022-07-23T00:32:06;17.67;;;12.63;;
28958;SDS011;16066;0.000;0.000;2022-07-23T00:34:31;20.47;;;12.17;;
28958;SDS011;16066;0.000;0.000;2022-07-23T00:36:57;16.83;;;12.60;;
28958;SDS011;16066;0.000;0.000;2022-07-23T00:39:22;16.97;;;11.90;;
28958;SDS011;16066;0.000;0.000;2022-07-23T00:41:48;20.90;;;12.80;;
28958;SDS011;16066;0.000;0.000;2022-07-23T00:46:44;18.70;;;11.77;;
28958;SDS011;16066;0.000;0.000;2022-07-23T00:49:11;16.10;;;11.50;;
28958;SDS011;16066;0.000;0.000;2022-07-23T00:51:36;16.00;;;11.27;;
28958;SDS011;16066;0.000;0.000;2022-07-23T00:54:02;17.87;;;11.47;;
28958;SDS011;16066;0.000;0.000;2022-07-23T00:56:28;19.27;;;11.30;;
28958;SDS011;16066;0.000;0.000;2022-07-23T00:58:55;18.23;;;11.47;;
28958;SDS011;16066;0.000;0.000;2022-07-23T01:01:21;19.13;;;12.17;;
28958;SDS011;16066;0.000;0.000;2022-07-23T01:03:47;15.13;;;10.67;;
28958;SDS011;16066;0.000;0.000;2022-07-23T01:06:12;21.43;;;12.10;;
28958;SDS011;16066;0.000;0.000;2022-07-23T01:08:39;16.73;;;11.50;;
28958;SDS011;16066;0.000;0.000;2022-07-23T01:11:04;18.33;;;11.77;;
28958;SDS011;16066;0.000;0.000;2022-07-23T01:13:30;17.57;;;11.40;;
28958;SDS011;16066;0.000;0.000;2022-07-23T01:15:56;21.53;;;12.30;;
28958;SDS011;16066;0.000;0.000;2022-07-23T01:18:21;14.50;;;10.13;;
28958;SDS011;16066;0.000;0.000;2022-07-23T01:20:47;17.30;;;12.17;;
28958;SDS011;16066;0.000;0.000;2022-07-23T01:23:12;14.37;;;10.50;;
28958;SDS011;16066;0.000;0.000;2022-07-23T01:25:46;15.10;;;9.77;;
28958;SDS011;16066;0.000;0.000;2022-07-23T01:28:13;15.63;;;9.90;;
28958;SDS011;16066;0.000;0.000;2022-07-23T01:30:38;11.17;;;9.27;;
28958;SDS011;16066;0.000;0.000;2022-07-23T01:33:04;16.07;;;9.77;;
28958;SDS011;16066;0.000;0.000;2022-07-23T01:35:30;15.07;;;10.40;;
28958;SDS011;16066;0.000;0.000;2022-07-23T01:37:55;14.70;;;10.13;;
28958;SDS011;16066;0.000;0.000;2022-07-23T01:40:21;17.07;;;11.17;;
28958;SDS011;16066;0.000;0.000;2022-07-23T01:42:46;15.60;;;10.10;;
28958;SDS011;16066;0.000;0.000;2022-07-23T01:45:12;13.87;;;9.53;;
28958;SDS011;16066;0.000;0.000;2022-07-23T01:47:38;15.53;;;11.17;;
28958;SDS011;16066;0.000;0.000;2022-07-23T01:50:03;13.10;;;10.67;;
28958;SDS011;16066;0.000;0.000;2022-07-23T01:52:29;16.50;;;10.87;;
28958;SDS011;16066;0.000;0.000;2022-07-23T01:54:54;15.87;;;10.17;;
28958;SDS011;16066;0.000;0.000;2022-07-23T01:57:20;18.63;;;10.83;;
28958;SDS011;16066;0.000;0.000;2022-07-23T01:59:45;15.23;;;10.10;;
28958;SDS011;16066;0.000;0.000;2022-07-23T02:02:11;18.27;;;10.17;;
28958;SDS011;16066;0.000;0.000;2022-07-23T02:04:36;13.33;;;9.97;;
28958;SDS011;16066;0.000;0.000;2022-07-23T02:07:03;18.80;;;11.37;;
28958;SDS011;16066;0.000;0.000;2022-07-23T02:09:29;15.67;;;10.50;;
28958;SDS011;16066;0.000;0.000;2022-07-23T02:11:55;20.93;;;12.13;;
28958;SDS011;16066;0.000;0.000;2022-07-23T02:14:21;16.23;;;11.00;;
28958;SDS011;16066;0.000;0.000;2022-07-23T02:16:46;16.00;;;11.37;;
28958;SDS011;16066;0.000;0.000;2022-07-23T02:19:12;14.53;;;9.67;;
28958;SDS011;16066;0.000;0.000;2022-07-23T02:21:37;20.17;;;10.73;;
28958;SDS011;16066;0.000;0.000;2022-07-23T02:24:03;12.90;;;9.60;;
28958;SDS011;16066;0.000;0.000;2022-07-23T02:26:29;14.53;;;9.10;;
28958;SDS011;16066;0.000;0.000;2022-07-23T02:28:57;12.70;;;9.50;;
28958;SDS011;16066;0.000;0.000;2022-07-23T02:31:22;12.27;;;9.70;;
28958;SDS011;16066;0.000;0.000;2022-07-23T02:33:48;17.90;;;10.03;;
28958;SDS011;16066;0.000;0.000;2022-07-23T02:36:14;16.57;;;10.30;;
28958;SDS011;16066;0.000;0.000;2022-07-23T02:38:39;13.63;;;10.33;;
28958;SDS011;16066;0.000;0.000;2022-07-23T02:41:05;15.47;;;10.87;;
28958;SDS011;16066;0.000;0.000;2022-07-23T02:43:30;16.10;;;11.43;;
28958;SDS011;16066;0.000;0.000;2022-07-23T02:45:55;15.47;;;10.93;;
28958;SDS011;16066;0.000;0.000;2022-07-23T02:48:21;18.83;;;10.50;;
28958;SDS011;16066;0.000;0.000;2022-07-23T02:50:47;16.00;;;10.43;;
28958;SDS011;16066;0.000;0.000;2022-07-23T02:53:12;14.67;;;10.77;;
28958;SDS011;16066;0.000;0.000;2022-07-23T02:55:38;15.07;;;11.00;;
28958;SDS011;16066;0.000;0.000;2022-07-23T02:58:03;16.27;;;9.60;;
28958;SDS011;16066;0.000;0.000;2022-07-23T03:00:29;13.23;;;10.50;;
28958;SDS011;16066;0.000;0.000;2022-07-23T03:02:55;15.63;;;9.27;;
28958;SDS011;16066;0.000;0.000;2022-07-23T03:05:20;12.33;;;9.67;;
28958;SDS011;16066;0.000;0.000;2022-07-23T03:07:46;14.73;;;10.50;;
28958;SDS011;16066;0.000;0.000;2022-07-23T03:10:11;18.07;;;10.60;;
28958;SDS011;16066;0.000;0.000;2022-07-23T03:12:37;15.43;;;9.40;;
28958;SDS011;16066;0.000;0.000;2022-07-23T03:15:02;15.27;;;10.77;;
28958;SDS011;16066;0.000;0.000;2022-07-23T03:17:28;17.80;;;9.97;;
28958;SDS011;16066;0.000;0.000;2022-07-23T03:19:54;13.47;;;9.97;;
28958;SDS011;16066;0.000;0.000;2022-07-23T03:22:19;13.90;;;9.47;;
28958;SDS011;16066;0.000;0.000;2022-07-23T03:24:45;15.63;;;9.40;;
28958;SDS011;16066;0.000;0.000;2022-07-23T03:27:20;16.87;;;10.20;;
28958;SDS011;16066;0.000;0.000;2022-07-23T03:29:50;13.90;;;9.70;;
28958;SDS011;16066;0.000;0.000;2022-07-23T03:32:16;14.10;;;10.20;;
28958;SDS011;16066;0.000;0.000;2022-07-23T03:34:42;13.87;;;9.40;;
28958;SDS011;16066;0.000;0.000;2022-07-23T03:37:07;11.30;;;9.40;;
28958;SDS011;16066;0.000;0.000;2022-07-23T03:39:33;15.60;;;10.10;;
28958;SDS011;16066;0.000;0.000;2022-07-23T03:41:59;11.33;;;8.90;;
28958;SDS011;16066;0.000;0.000;2022-07-23T03:44:24;12.70;;;9.20;;
28958;SDS011;16066;0.000;0.000;2022-07-23T03:46:50;11.90;;;9.70;;
28958;SDS011;16066;0.000;0.000;2022-07-23T03:49:15;14.87;;;8.30;;
28958;SDS011;16066;0.000;0.000;2022-07-23T03:51:41;11.07;;;8.50;;
28958;SDS011;16066;0.000;0.000;2022-07-23T03:54:07;12.97;;;9.37;;
28958;SDS011;16066;0.000;0.000;2022-07-23T03:56:32;13.80;;;9.00;;
28958;SDS011;16066;0.000;0.000;2022-07-23T03:58:58;14.13;;;8.67;;
28958;SDS011;16066;0.000;0.000;2022-07-23T04:01:23;16.03;;;9.53;;
28958;SDS011;16066;0.000;0.000;2022-07-23T04:03:49;8.80;;;7.90;;
28958;SDS011;16066;0.000;0.000;2022-07-23T04:06:14;9.97;;;8.00;;
28958;SDS011;16066;0.000;0.000;2022-07-23T04:08:40;12.50;;;8.27;;
28958;SDS011;16066;0.000;0.000;2022-07-23T04:11:05;12.63;;;8.30;;
28958;SDS011;16066;0.000;0.000;2022-07-23T04:13:31;10.07;;;7.40;;
28958;SDS011;16066;0.000;0.000;2022-07-23T04:15:57;9.93;;;8.07;;
28958;SDS011;16066;0.000;0.000;2022-07-23T04:18:23;12.20;;;8.40;;
28958;SDS011;16066;0.000;0.000;2022-07-23T04:20:50;14.90;;;8.97;;
28958;SDS011;16066;0.000;0.000;2022-07-23T04:23:16;14.17;;;9.43;;
28958;SDS011;16066;0.000;0.000;2022-07-23T04:25:42;14.10;;;8.87;;
28958;SDS011;16066;0.000;0.000;2022-07-23T04:28:08;12.20;;;8.37;;
28958;SDS011;16066;0.000;0.000;2022-07-23T04:30:34;15.10;;;9.30;;
28958;SDS011;16066;0.000;0.000;2022-07-23T04:33:00;11.77;;;8.17;;
28958;SDS011;16066;0.000;0.000;2022-07-23T04:35:25;12.03;;;8.03;;
28958;SDS011;16066;0.000;0.000;2022-07-23T04:37:51;12.10;;;9.00;;
28958;SDS011;16066;0.000;0.000;2022-07-23T04:40:17;10.97;;;8.27;;
28958;SDS011;16066;0.000;0.000;2022-07-23T04:42:43;10.83;;;8.63;;
28958;SDS011;16066;0.000;0.000;2022-07-23T04:45:08;13.03;;;9.10;;
28958;SDS011;16066;0.000;0.000;2022-07-23T04:47:34;13.77;;;10.00;;
28958;SDS011;16066;0.000;0.000;2022-07-23T04:50:00;11.03;;;8.70;;
28958;SDS011;16066;0.000;0.000;2022-07-23T04:52:25;11.73;;;9.30;;
28958;SDS011;16066;0.000;0.000;2022-07-23T04:54:51;13.53;;;9.30;;
28958;SDS011;16066;0.000;0.000;2022-07-23T04:57:16;15.37;;;9.63;;
28958;SDS011;16066;0.000;0.000;2022-07-23T04:59:42;13.97;;;9.43;;
28958;SDS011;16066;0.000;0.000;2022-07-23T05:02:08;12.80;;;9.60;;
28958;SDS011;16066;0.000;0.000;2022-07-23T05:04:33;17.87;;;8.70;;
28958;SDS011;16066;0.000;0.000;2022-07-23T05:06:59;12.33;;;8.87;;
28958;SDS011;16066;0.000;0.000;2022-07-23T05:09:24;15.40;;;9.10;;
28958;SDS011;16066;0.000;0.000;2022-07-23T05:11:50;13.67;;;9.13;;
28958;SDS011;16066;0.000;0.000;2022-07-23T05:14:16;12.50;;;8.80;;
28958;SDS011;16066;0.000;0.000;2022-07-23T05:16:41;14.83;;;8.60;;
28958;SDS011;16066;0.000;0.000;2022-07-23T05:19:07;11.47;;;8.80;;
28958;SDS011;16066;0.000;0.000;2022-07-23T05:21:32;14.57;;;8.13;;
28958;SDS011;16066;0.000;0.000;2022-07-23T05:23:58;10.77;;;7.43;;
28958;SDS011;16066;0.000;0.000;2022-07-23T05:26:24;9.57;;;6.87;;
28958;SDS011;16066;0.000;0.000;2022-07-23T05:28:50;11.53;;;7.53;;
28958;SDS011;16066;0.000;0.000;2022-07-23T05:31:16;12.40;;;7.97;;
28958;SDS011;16066;0.000;0.000;2022-07-23T05:33:42;17.90;;;8.63;;
28958;SDS011;16066;0.000;0.000;2022-07-23T05:36:08;9.30;;;7.10;;
28958;SDS011;16066;0.000;0.000;2022-07-23T05:38:34;9.83;;;7.80;;
28958;SDS011;16066;0.000;0.000;2022-07-23T05:41:00;10.90;;;7.50;;
28958;SDS011;16066;0.000;0.000;2022-07-23T05:43:26;11.03;;;8.30;;
28958;SDS011;16066;0.000;0.000;2022-07-23T05:45:51;10.30;;;7.53;;
28958;SDS011;16066;0.000;0.000;2022-07-23T05:48:17;10.77;;;7.63;;
28958;SDS011;16066;0.000;0.000;2022-07-23T05:50:43;9.77;;;7.20;;
28958;SDS011;16066;0.000;0.000;2022-07-23T05:53:08;8.00;;;7.20;;
28958;SDS011;16066;0.000;0.000;2022-07-23T05:55:34;8.50;;;7.30;;
28958;SDS011;16066;0.000;0.000;2022-07-23T05:57:59;10.50;;;6.23;;
28958;SDS011;16066;0.000;0.000;2022-07-23T06:00:25;8.57;;;6.40;;
28958;SDS011;16066;0.000;0.000;2022-07-23T06:02:51;10.23;;;7.47;;
28958;SDS011;16066;0.000;0.000;2022-07-23T06:05:17;7.13;;;5.73;;
28958;SDS011;16066;0.000;0.000;2022-07-23T06:07:43;7.57;;;6.77;;
28958;SDS011;16066;0.000;0.000;2022-07-23T06:10:08;8.10;;;6.37;;
28958;SDS011;16066;0.000;0.000;2022-07-23T06:12:34;7.80;;;6.50;;
28958;SDS011;16066;0.000;0.000;2022-07-23T06:15:00;9.80;;;6.23;;
28958;SDS011;16066;0.000;0.000;2022-07-23T06:17:26;8.87;;;5.50;;
28958;SDS011;16066;0.000;0.000;2022-07-23T06:19:52;8.77;;;7.13;;
28958;SDS011;16066;0.000;0.000;2022-07-23T06:22:18;7.90;;;6.07;;
28958;SDS011;16066;0.000;0.000;2022-07-23T06:24:44;8.40;;;5.47;;
28958;SDS011;16066;0.000;0.000;2022-07-23T06:27:10;7.30;;;5.20;;
28958;SDS011;16066;0.000;0.000;2022-07-23T06:29:35;7.67;;;6.13;;
28958;SDS011;16066;0.000;0.000;2022-07-23T06:32:01;7.50;;;5.17;;
28958;SDS011;16066;0.000;0.000;2022-07-23T06:34:26;9.90;;;5.73;;
28958;SDS011;16066;0.000;0.000;2022-07-23T06:36:52;6.70;;;5.00;;
28958;SDS011;16066;0.000;0.000;2022-07-23T06:39:17;6.87;;;4.60;;
28958;SDS011;16066;0.000;0.000;2022-07-23T06:41:43;5.73;;;5.07;;
28958;SDS011;16066;0.000;0.000;2022-07-23T06:44:08;5.07;;;4.47;;
28958;SDS011;16066;0.000;0.000;2022-07-23T06:46:34;5.20;;;4.70;;
28958;SDS011;16066;0.000;0.000;2022-07-23T06:49:00;10.03;;;5.07;;
28958;SDS011;16066;0.000;0.000;2022-07-23T06:51:25;6.00;;;5.07;;
28958;SDS011;16066;0.000;0.000;2022-07-23T06:53:51;6.70;;;4.57;;
28958;SDS011;16066;0.000;0.000;2022-07-23T06:56:17;5.93;;;4.13;;
28958;SDS011;16066;0.000;0.000;2022-07-23T06:58:42;9.67;;;5.17;;
28958;SDS011;16066;0.000;0.000;2022-07-23T07:01:08;7.60;;;4.40;;
28958;SDS011;16066;0.000;0.000;2022-07-23T07:03:33;6.47;;;4.33;;
28958;SDS011;16066;0.000;0.000;2022-07-23T07:05:59;5.20;;;3.93;;
28958;SDS011;16066;0.000;0.000;2022-07-23T07:08:24;4.73;;;4.23;;
28958;SDS011;16066;0.000;0.000;2022-07-23T07:10:50;5.40;;;4.60;;
28958;SDS011;16066;0.000;0.000;2022-07-23T07:13:15;7.97;;;5.63;;
28958;SDS011;16066;0.000;0.000;2022-07-23T07:15:41;5.13;;;4.63;;
28958;SDS011;16066;0.000;0.000;2022-07-23T07:18:06;7.03;;;4.83;;
28958;SDS011;16066;0.000;0.000;2022-07-23T07:20:32;5.30;;;4.27;;
28958;SDS011;16066;0.000;0.000;2022-07-23T07:22:58;9.47;;;5.23;;
28958;SDS011;16066;0.000;0.000;2022-07-23T07:25:23;5.47;;;4.13;;
28958;SDS011;16066;0.000;0.000;2022-07-23T07:27:49;5.93;;;5.33;;
28958;SDS011;16066;0.000;0.000;2022-07-23T07:30:15;7.50;;;5.73;;
28958;SDS011;16066;0.000;0.000;2022-07-23T07:32:41;11.87;;;7.20;;
28958;SDS011;16066;0.000;0.000;2022-07-23T07:35:07;9.20;;;5.23;;
28958;SDS011;16066;0.000;0.000;2022-07-23T07:37:33;14.70;;;6.67;;
28958;SDS011;16066;0.000;0.000;2022-07-23T07:39:59;10.97;;;5.70;;
28958;SDS011;16066;0.000;0.000;2022-07-23T07:42:24;11.73;;;7.30;;
28958;SDS011;16066;0.000;0.000;2022-07-23T07:44:50;14.73;;;7.17;;
28958;SDS011;16066;0.000;0.000;2022-07-23T07:47:16;10.97;;;9.50;;
28958;SDS011;16066;0.000;0.000;2022-07-23T07:49:41;9.47;;;8.10;;
28958;SDS011;16066;0.000;0.000;2022-07-23T07:52:08;16.80;;;8.63;;
28958;SDS011;16066;0.000;0.000;2022-07-23T07:54:33;14.33;;;9.30;;
28958;SDS011;16066;0.000;0.000;2022-07-23T07:56:59;14.80;;;9.27;;
28958;SDS011;16066;0.000;0.000;2022-07-23T07:59:24;13.27;;;9.70;;
28958;SDS011;16066;0.000;0.000;2022-07-23T08:01:50;13.17;;;10.73;;
28958;SDS011;16066;0.000;0.000;2022-07-23T08:04:16;16.87;;;11.90;;
28958;SDS011;16066;0.000;0.000;2022-07-23T08:06:41;19.23;;;9.60;;
28958;SDS011;16066;0.000;0.000;2022-07-23T08:09:07;15.23;;;10.60;;
28958;SDS011;16066;0.000;0.000;2022-07-23T08:11:32;25.77;;;12.67;;
28958;SDS011;16066;0.000;0.000;2022-07-23T08:13:58;14.13;;;10.70;;
28958;SDS011;16066;0.000;0.000;2022-07-23T08:16:23;13.20;;;11.50;;
28958;SDS011;16066;0.000;0.000;2022-07-23T08:18:49;16.50;;;11.17;;
28958;SDS011;16066;0.000;0.000;2022-07-23T08:21:14;17.97;;;10.77;;
28958;SDS011;16066;0.000;0.000;2022-07-23T08:23:40;17.50;;;11.03;;
28958;SDS011;16066;0.000;0.000;2022-07-23T08:26:05;12.93;;;11.20;;
28958;SDS011;16066;0.000;0.000;2022-07-23T08:28:31;14.73;;;11.83;;
28958;SDS011;16066;0.000;0.000;2022-07-23T08:30:58;18.13;;;11.70;;
28958;SDS011;16066;0.000;0.000;2022-07-23T08:33:24;14.03;;;10.90;;
28958;SDS011;16066;0.000;0.000;2022-07-23T08:35:50;15.10;;;11.67;;
28958;SDS011;16066;0.000;0.000;2022-07-23T08:38:18;13.30;;;11.03;;
28958;SDS011;16066;0.000;0.000;2022-07-23T08:40:47;15.70;;;11.27;;
28958;SDS011;16066;0.000;0.000;2022-07-23T08:43:18;16.40;;;10.77;;
28958;SDS011;16066;0.000;0.000;2022-07-23T08:45:50;16.27;;;11.37;;
28958;SDS011;16066;0.000;0.000;2022-07-23T08:48:18;13.40;;;11.20;;
28958;SDS011;16066;0.000;0.000;2022-07-23T08:50:46;13.40;;;11.67;;
28958;SDS011;16066;0.000;0.000;2022-07-23T08:53:15;15.47;;;12.60;;
28958;SDS011;16066;0.000;0.000;2022-07-23T08:55:45;12.63;;;11.10;;
28958;SDS011;16066;0.000;0.000;2022-07-23T08:58:12;11.40;;;10.20;;
28958;SDS011;16066;0.000;0.000;2022-07-23T09:00:38;11.63;;;9.73;;
28958;SDS011;16066;0.000;0.000;2022-07-23T09:03:04;12.40;;;10.23;;
28958;SDS011;16066;0.000;0.000;2022-07-23T09:05:29;12.13;;;10.50;;
28958;SDS011;16066;0.000;0.000;2022-07-23T09:08:05;11.33;;;9.20;;
28958;SDS011;16066;0.000;0.000;2022-07-23T09:16:01;10.60;;;9.00;;
28958;SDS011;16066;0.000;0.000;2022-07-23T09:18:50;10.27;;;9.07;;
28958;SDS011;16066;0.000;0.000;2022-07-23T09:21:22;11.63;;;9.33;;
28958;SDS011;16066;0.000;0.000;2022-07-23T09:26:21;14.17;;;9.63;;
28958;SDS011;16066;0.000;0.000;2022-07-23T09:31:41;11.40;;;10.20;;
28958;SDS011;16066;0.000;0.000;2022-07-23T09:34:14;14.93;;;9.63;;
28958;SDS011;16066;0.000;0.000;2022-07-23T09:36:52;18.47;;;10.30;;
28958;SDS011;16066;0.000;0.000;2022-07-23T09:39:27;15.73;;;10.50;;
28958;SDS011;16066;0.000;0.000;2022-07-23T09:41:57;13.33;;;11.10;;
28958;SDS011;16066;0.000;0.000;2022-07-23T09:44:40;13.80;;;10.50;;
28958;SDS011;16066;0.000;0.000;2022-07-23T09:47:11;12.10;;;9.90;;
28958;SDS011;16066;0.000;0.000;2022-07-23T09:49:36;11.47;;;9.97;;
28958;SDS011;16066;0.000;0.000;2022-07-23T09:52:02;14.67;;;8.70;;
28958;SDS011;16066;0.000;0.000;2022-07-23T09:54:30;10.40;;;9.37;;
28958;SDS011;16066;0.000;0.000;2022-07-23T09:57:04;9.33;;;8.40;;
28958;SDS011;16066;0.000;0.000;2022-07-23T09:59:39;12.13;;;9.40;;
28958;SDS011;16066;0.000;0.000;2022-07-23T10:02:05;9.57;;;8.50;;
28958;SDS011;16066;0.000;0.000;2022-07-23T10:04:32;9.53;;;8.37;;
28958;SDS011;16066;0.000;0.000;2022-07-23T10:07:00;8.90;;;8.00;;
28958;SDS011;16066;0.000;0.000;2022-07-23T10:09:31;11.50;;;8.73;;
28958;SDS011;16066;0.000;0.000;2022-07-23T10:11:59;18.67;;;7.10;;
28958;SDS011;16066;0.000;0.000;2022-07-23T10:14:38;8.23;;;7.27;;
28958;SDS011;16066;0.000;0.000;2022-07-23T10:17:05;9.37;;;8.23;;
28958;SDS011;16066;0.000;0.000;2022-07-23T10:19:31;10.00;;;8.13;;
28958;SDS011;16066;0.000;0.000;2022-07-23T10:21:58;10.33;;;8.37;;
28958;SDS011;16066;0.000;0.000;2022-07-23T10:29:47;8.47;;;6.83;;
28958;SDS011;16066;0.000;0.000;2022-07-23T10:32:21;8.23;;;7.17;;
28958;SDS011;16066;0.000;0.000;2022-07-23T10:37:45;7.97;;;7.23;;
28958;SDS011;16066;0.000;0.000;2022-07-23T10:40:20;8.40;;;7.60;;
28958;SDS011;16066;0.000;0.000;2022-07-23T10:42:48;8.47;;;6.97;;
28958;SDS011;16066;0.000;0.000;2022-07-23T10:45:30;7.60;;;6.60;;
28958;SDS011;16066;0.000;0.000;2022-07-23T10:48:14;6.93;;;6.20;;
28958;SDS011;16066;0.000;0.000;2022-07-23T10:50:41;7.10;;;6.30;;
28958;SDS011;16066;0.000;0.000;2022-07-23T10:53:17;6.37;;;5.77;;
28958;SDS011;16066;0.000;0.000;2022-07-23T10:55:44;7.70;;;5.73;;
28958;SDS011;16066;0.000;0.000;2022-07-23T10:58:21;7.50;;;5.97;;
28958;SDS011;16066;0.000;0.000;2022-07-23T11:04:04;5.80;;;5.20;;
28958;SDS011;16066;0.000;0.000;2022-07-23T11:17:28;5.47;;;4.97;;
28958;SDS011;16066;0.000;0.000;2022-07-23T11:22:40;6.90;;;4.77;;
28958;SDS011;16066;0.000;0.000;2022-07-23T11:25:28;5.50;;;4.63;;
28958;SDS011;16066;0.000;0.000;2022-07-23T11:28:07;8.10;;;5.60;;
28958;SDS011;16066;0.000;0.000;2022-07-23T11:35:40;9.67;;;4.20;;
28958;SDS011;16066;0.000;0.000;2022-07-23T11:38:14;6.93;;;4.27;;
28958;SDS011;16066;0.000;0.000;2022-07-23T11:40:43;5.97;;;4.17;;
28958;SDS011;16066;0.000;0.000;2022-07-23T11:43:10;5.80;;;4.77;;
28958;SDS011;16066;0.000;0.000;2022-07-23T11:45:37;5.73;;;4.50;;
28958;SDS011;16066;0.000;0.000;2022-07-23T11:48:20;6.30;;;5.10;;
28958;SDS011;16066;0.000;0.000;2022-07-23T11:50:56;8.73;;;4.60;;
28958;SDS011;16066;0.000;0.000;2022-07-23T11:53:30;6.17;;;4.00;;
28958;SDS011;16066;0.000;0.000;2022-07-23T11:56:07;6.70;;;4.20;;
28958;SDS011;16066;0.000;0.000;2022-07-23T11:58:34;4.30;;;3.90;;
28958;SDS011;16066;0.000;0.000;2022-07-23T12:01:00;7.03;;;4.53;;
28958;SDS011;16066;0.000;0.000;2022-07-23T12:03:26;4.07;;;3.67;;
28958;SDS011;16066;0.000;0.000;2022-07-23T12:05:55;8.30;;;4.27;;
28958;SDS011;16066;0.000;0.000;2022-07-23T12:08:22;4.67;;;3.67;;
28958;SDS011;16066;0.000;0.000;2022-07-23T12:10:47;4.97;;;3.80;;
28958;SDS011;16066;0.000;0.000;2022-07-23T12:13:14;7.60;;;4.33;;
28958;SDS011;16066;0.000;0.000;2022-07-23T12:15:45;7.13;;;3.90;;
28958;SDS011;16066;0.000;0.000;2022-07-23T12:18:14;5.30;;;3.40;;
28958;SDS011;16066;0.000;0.000;2022-07-23T12:20:45;5.03;;;3.20;;
28958;SDS011;16066;0.000;0.000;2022-07-23T12:23:14;3.47;;;2.90;;
28958;SDS011;16066;0.000;0.000;2022-07-23T12:25:41;4.77;;;3.17;;
28958;SDS011;16066;0.000;0.000;2022-07-23T12:33:15;6.37;;;3.47;;
28958;SDS011;16066;0.000;0.000;2022-07-23T12:35:54;6.10;;;3.13;;
28958;SDS011;16066;0.000;0.000;2022-07-23T12:38:22;8.20;;;3.83;;
28958;SDS011;16066;0.000;0.000;2022-07-23T12:40:52;4.07;;;2.90;;
28958;SDS011;16066;0.000;0.000;2022-07-23T12:43:25;5.53;;;3.30;;
28958;SDS011;16066;0.000;0.000;2022-07-23T12:46:11;5.20;;;2.83;;
28958;SDS011;16066;0.000;0.000;2022-07-23T12:51:17;3.17;;;2.90;;
28958;SDS011;16066;0.000;0.000;2022-07-23T12:53:50;4.83;;;2.60;;
28958;SDS011;16066;0.000;0.000;2022-07-23T12:56:22;4.63;;;2.80;;
28958;SDS011;16066;0.000;0.000;2022-07-23T12:58:56;9.90;;;3.10;;
28958;SDS011;16066;0.000;0.000;2022-07-23T13:01:38;5.63;;;2.50;;
28958;SDS011;16066;0.000;0.000;2022-07-23T13:04:16;6.10;;;2.93;;
28958;SDS011;16066;0.000;0.000;2022-07-23T13:06:45;3.10;;;2.80;;
28958;SDS011;16066;0.000;0.000;2022-07-23T13:09:13;4.23;;;2.67;;
28958;SDS011;16066;0.000;0.000;2022-07-23T13:11:47;3.33;;;3.00;;
28958;SDS011;16066;0.000;0.000;2022-07-23T13:14:14;2.90;;;2.63;;
28958;SDS011;16066;0.000;0.000;2022-07-23T13:16:40;3.90;;;2.40;;
28958;SDS011;16066;0.000;0.000;2022-07-23T13:19:06;4.90;;;2.43;;
28958;SDS011;16066;0.000;0.000;2022-07-23T13:21:32;3.20;;;2.10;;
28958;SDS011;16066;0.000;0.000;2022-07-23T13:23:58;6.53;;;3.23;;
28958;SDS011;16066;0.000;0.000;2022-07-23T13:26:24;3.90;;;2.40;;
28958;SDS011;16066;0.000;0.000;2022-07-23T13:28:50;2.90;;;2.60;;
28958;SDS011;16066;0.000;0.000;2022-07-23T13:31:16;3.43;;;2.77;;
28958;SDS011;16066;0.000;0.000;2022-07-23T13:33:42;3.63;;;2.47;;
28958;SDS011;16066;0.000;0.000;2022-07-23T13:36:08;4.63;;;2.30;;
28958;SDS011;16066;0.000;0.000;2022-07-23T13:38:34;3.23;;;2.70;;
28958;SDS011;16066;0.000;0.000;2022-07-23T13:40:59;4.50;;;3.37;;
28958;SDS011;16066;0.000;0.000;2022-07-23T13:43:25;6.60;;;3.20;;
28958;SDS011;16066;0.000;0.000;2022-07-23T13:45:51;4.33;;;2.97;;
28958;SDS011;16066;0.000;0.000;2022-07-23T13:48:17;3.60;;;3.07;;
28958;SDS011;16066;0.000;0.000;2022-07-23T13:50:44;3.90;;;2.80;;
28958;SDS011;16066;0.000;0.000;2022-07-23T13:53:15;3.53;;;2.97;;
28958;SDS011;16066;0.000;0.000;2022-07-23T13:55:43;4.73;;;2.87;;
28958;SDS011;16066;0.000;0.000;2022-07-23T13:58:09;3.90;;;2.50;;
28958;SDS011;16066;0.000;0.000;2022-07-23T14:00:36;2.73;;;2.53;;
28958;SDS011;16066;0.000;0.000;2022-07-23T14:03:04;3.70;;;2.37;;
28958;SDS011;16066;0.000;0.000;2022-07-23T14:05:30;3.57;;;2.87;;
28958;SDS011;16066;0.000;0.000;2022-07-23T14:07:56;4.70;;;2.60;;
28958;SDS011;16066;0.000;0.000;2022-07-23T14:10:22;4.63;;;2.70;;
28958;SDS011;16066;0.000;0.000;2022-07-23T14:12:48;5.30;;;3.03;;
28958;SDS011;16066;0.000;0.000;2022-07-23T14:15:16;4.10;;;3.03;;
28958;SDS011;16066;0.000;0.000;2022-07-23T14:17:42;5.60;;;3.40;;
28958;SDS011;16066;0.000;0.000;2022-07-23T14:20:10;5.83;;;3.10;;
28958;SDS011;16066;0.000;0.000;2022-07-23T14:22:37;8.03;;;3.57;;
28958;SDS011;16066;0.000;0.000;2022-07-23T14:25:03;5.83;;;2.83;;
28958;SDS011;16066;0.000;0.000;2022-07-23T14:27:30;5.57;;;2.60;;
28958;SDS011;16066;0.000;0.000;2022-07-23T14:29:56;6.60;;;3.43;;
28958;SDS011;16066;0.000;0.000;2022-07-23T14:32:22;3.13;;;2.83;;
28958;SDS011;16066;0.000;0.000;2022-07-23T14:34:47;11.10;;;3.07;;
28958;SDS011;16066;0.000;0.000;2022-07-23T14:37:13;3.67;;;3.20;;
28958;SDS011;16066;0.000;0.000;2022-07-23T14:39:39;5.33;;;3.50;;
28958;SDS011;16066;0.000;0.000;2022-07-23T14:42:06;4.20;;;3.43;;
28958;SDS011;16066;0.000;0.000;2022-07-23T14:44:32;3.97;;;3.00;;
28958;SDS011;16066;0.000;0.000;2022-07-23T14:46:58;35.47;;;4.40;;
28958;SDS011;16066;0.000;0.000;2022-07-23T14:49:24;32.40;;;4.43;;
28958;SDS011;16066;0.000;0.000;2022-07-23T14:51:50;10.37;;;3.23;;
28958;SDS011;16066;0.000;0.000;2022-07-23T14:54:16;4.57;;;3.50;;
28958;SDS011;16066;0.000;0.000;2022-07-23T14:56:42;5.83;;;3.43;;
28958;SDS011;16066;0.000;0.000;2022-07-23T14:59:07;5.33;;;3.27;;
28958;SDS011;16066;0.000;0.000;2022-07-23T15:01:33;4.53;;;3.23;;
28958;SDS011;16066;0.000;0.000;2022-07-23T15:03:59;4.60;;;2.83;;
28958;SDS011;16066;0.000;0.000;2022-07-23T15:06:25;3.70;;;3.20;;
28958;SDS011;16066;0.000;0.000;2022-07-23T15:08:51;6.67;;;3.57;;
28958;SDS011;16066;0.000;0.000;2022-07-23T15:11:16;3.93;;;3.10;;
28958;SDS011;16066;0.000;0.000;2022-07-23T15:13:42;3.53;;;2.90;;
28958;SDS011;16066;0.000;0.000;2022-07-23T15:16:08;5.50;;;3.20;;
28958;SDS011;16066;0.000;0.000;2022-07-23T15:18:34;4.33;;;3.40;;
28958;SDS011;16066;0.000;0.000;2022-07-23T15:21:00;5.17;;;3.53;;
28958;SDS011;16066;0.000;0.000;2022-07-23T15:23:26;4.67;;;3.63;;
28958;SDS011;16066;0.000;0.000;2022-07-23T15:25:53;12.80;;;3.20;;
28958;SDS011;16066;0.000;0.000;2022-07-23T15:28:22;4.70;;;3.63;;
28958;SDS011;16066;0.000;0.000;2022-07-23T15:30:49;5.90;;;4.00;;
28958;SDS011;16066;0.000;0.000;2022-07-23T15:33:16;4.43;;;3.70;;
28958;SDS011;16066;0.000;0.000;2022-07-23T15:35:42;5.87;;;3.80;;
28958;SDS011;16066;0.000;0.000;2022-07-23T15:38:07;4.77;;;3.97;;
28958;SDS011;16066;0.000;0.000;2022-07-23T15:40:33;6.10;;;3.60;;